createdAt,value
2022-07-26T00:02:12.198Z,5.90
2022-07-26T00:07:09.903Z,5.40
2022-07-26T00:12:09.944Z,5.40
2022-07-26T00:17:09.957Z,6.10
2022-07-26T00:22:09.941Z,6.10
2022-07-26T00:27:09.944Z,6.30
2022-07-26T00:32:09.975Z,6.30
2022-07-26T00:37:09.950Z,5.70
2022-07-26T00:42:09.935Z,5.70
2022-07-26T00:47:10.012Z,6.10
2022-07-26T00:52:09.958Z,6.10
2022-07-26T00:57:09.988Z,6.80
2022-07-26T01:02:10.319Z,6.80
2022-07-26T01:07:14.817Z,6.10
2022-07-26T01:12:09.934Z,6.10
2022-07-26T01:17:10.017Z,12.00
2022-07-26T01:22:14.418Z,12.00
2022-07-26T01:32:10.000Z,7.20
2022-07-26T01:37:10.023Z,6.40
2022-07-26T01:42:09.990Z,6.40
2022-07-26T01:47:09.998Z,8.00
2022-07-26T01:52:10.020Z,8.00
2022-07-26T01:57:10.057Z,6.10
2022-07-26T02:02:10.105Z,6.10
2022-07-26T02:07:12.833Z,6.60
2022-07-26T02:12:09.967Z,6.60
2022-07-26T02:17:10.011Z,6.90
2022-07-26T02:22:10.032Z,6.90
2022-07-26T02:27:10.053Z,7.20
2022-07-26T02:32:09.977Z,7.20
2022-07-26T02:37:10.009Z,7.50
2022-07-26T02:42:10.048Z,7.50
2022-07-26T02:47:10.030Z,7.80
2022-07-26T02:52:10.107Z,7.80
2022-07-26T02:57:10.038Z,7.90
2022-07-26T03:02:10.048Z,7.90
2022-07-26T03:07:10.058Z,6.40
2022-07-26T03:12:10.042Z,6.40
2022-07-26T03:17:10.039Z,6.70
2022-07-26T03:22:10.013Z,6.70
2022-07-26T03:27:10.051Z,6.90
2022-07-26T03:32:10.009Z,6.90
2022-07-26T03:37:10.043Z,6.50
2022-07-26T03:42:10.062Z,6.50
2022-07-26T03:47:10.011Z,6.60
2022-07-26T03:52:10.047Z,6.60
2022-07-26T03:57:10.092Z,6.10
2022-07-26T04:02:10.091Z,6.10
2022-07-26T04:07:10.086Z,5.90
2022-07-26T04:12:10.080Z,5.90
2022-07-26T04:17:10.234Z,6.50
2022-07-26T04:22:10.039Z,6.50
2022-07-26T04:27:10.081Z,5.50
2022-07-26T04:32:10.234Z,5.50
2022-07-26T04:37:10.109Z,6.40
2022-07-26T04:42:10.080Z,6.40
2022-07-26T04:47:10.125Z,8.10
2022-07-26T04:52:10.063Z,8.10
2022-07-26T04:57:10.111Z,8.00
2022-07-26T05:02:10.224Z,8.00
2022-07-26T05:07:10.116Z,6.40
2022-07-26T05:12:10.103Z,6.40
2022-07-26T05:17:10.513Z,6.20
2022-07-26T05:22:10.345Z,6.20
2022-07-26T05:27:10.103Z,6.80
2022-07-26T05:32:10.136Z,6.80
2022-07-26T05:37:10.082Z,6.90
2022-07-26T05:42:10.115Z,6.90
2022-07-26T05:47:10.979Z,7.70
2022-07-26T05:52:10.099Z,7.70
2022-07-26T05:57:10.131Z,7.10
2022-07-26T06:02:10.139Z,7.10
2022-07-26T06:07:10.319Z,6.20
2022-07-26T06:12:10.134Z,6.20
2022-07-26T06:17:10.199Z,6.60
2022-07-26T06:22:10.097Z,6.60
2022-07-26T06:27:10.138Z,6.10
2022-07-26T06:32:10.220Z,6.10
2022-07-26T06:37:10.157Z,8.30
2022-07-26T06:42:10.165Z,8.30
2022-07-26T06:47:10.124Z,8.60
2022-07-26T06:52:10.152Z,8.60
2022-07-26T06:57:10.151Z,10.50
2022-07-26T07:02:10.249Z,10.50
2022-07-26T07:07:10.260Z,7.40
2022-07-26T07:12:10.706Z,7.40
2022-07-26T07:17:11.184Z,6.90
2022-07-26T07:22:10.207Z,6.90
2022-07-26T07:27:10.474Z,7.80
2022-07-26T07:32:18.478Z,7.80
2022-07-26T07:37:10.149Z,7.20
2022-07-26T07:42:10.241Z,7.20
2022-07-26T07:47:10.315Z,5.70
2022-07-26T07:52:10.175Z,5.70
2022-07-26T07:57:10.185Z,8.10
2022-07-26T08:02:11.739Z,8.10
2022-07-26T08:07:10.164Z,8.60
2022-07-26T08:12:10.213Z,8.60
2022-07-26T08:17:10.245Z,7.00
2022-07-26T08:22:10.194Z,7.00
2022-07-26T08:27:10.198Z,10.10
2022-07-26T08:32:10.186Z,10.10
2022-07-26T08:37:16.965Z,9.90
2022-07-26T08:42:10.198Z,9.90
2022-07-26T08:47:10.281Z,8.70
2022-07-26T08:52:10.284Z,8.70
2022-07-26T08:57:10.254Z,11.10
2022-07-26T09:02:10.198Z,11.10
2022-07-26T09:07:10.275Z,9.10
2022-07-26T09:12:10.250Z,9.10
2022-07-26T09:17:10.237Z,8.10
2022-07-26T09:22:10.672Z,8.10
2022-07-26T09:27:10.261Z,7.30
2022-07-26T09:32:10.250Z,7.30
2022-07-26T09:37:12.519Z,8.00
2022-07-26T09:42:27.522Z,8.00
2022-07-26T09:47:10.400Z,7.30
2022-07-26T09:52:10.424Z,7.30
2022-07-26T09:57:10.270Z,8.40
2022-07-26T10:02:10.280Z,8.40
2022-07-26T10:07:10.290Z,7.80
2022-07-26T10:12:10.227Z,7.80
2022-07-26T10:17:10.330Z,8.40
2022-07-26T10:22:10.281Z,8.40
2022-07-26T10:27:10.292Z,7.90
2022-07-26T10:32:10.255Z,7.90
2022-07-26T10:37:10.428Z,8.30
2022-07-26T10:42:10.280Z,8.30
2022-07-26T10:47:10.294Z,8.70
2022-07-26T10:52:10.282Z,8.70
2022-07-26T10:57:10.287Z,9.00
2022-07-26T11:02:10.300Z,9.00
2022-07-26T11:07:10.338Z,8.80
2022-07-26T11:12:10.298Z,8.80
2022-07-26T11:17:10.422Z,9.20
2022-07-26T11:22:10.274Z,9.20
2022-07-26T11:27:10.555Z,9.10
2022-07-26T11:32:17.671Z,9.10
2022-07-26T11:37:10.341Z,9.00
2022-07-26T11:42:10.279Z,9.00
2022-07-26T11:47:10.307Z,8.30
2022-07-26T11:52:10.296Z,8.30
2022-07-26T11:57:10.313Z,9.60
2022-07-26T12:02:10.326Z,9.60
2022-07-26T12:07:10.363Z,9.40
2022-07-26T12:12:10.287Z,9.40
2022-07-26T12:17:10.331Z,8.00
2022-07-26T12:22:12.214Z,8.00
2022-07-26T12:27:10.344Z,7.70
2022-07-26T12:32:12.525Z,7.70
2022-07-26T12:37:10.334Z,7.70
2022-07-26T12:42:10.353Z,8.50
2022-07-26T12:47:10.338Z,8.50
2022-07-26T12:52:10.317Z,7.50
2022-07-26T12:57:10.355Z,7.50
2022-07-26T13:02:10.342Z,7.90
2022-07-26T13:07:10.352Z,7.90
2022-07-26T13:12:10.424Z,7.00
2022-07-26T13:17:10.491Z,7.00
2022-07-26T13:22:10.384Z,8.30
2022-07-26T13:27:10.381Z,8.30
2022-07-26T13:32:10.330Z,7.70
2022-07-26T13:37:10.387Z,7.70
2022-07-26T13:47:10.410Z,7.90
2022-07-26T13:52:15.508Z,8.50
2022-07-26T13:57:10.431Z,8.50
2022-07-26T14:02:10.668Z,9.40
2022-07-26T14:07:10.403Z,9.40
2022-07-26T14:12:10.383Z,8.20
2022-07-26T14:17:10.413Z,8.20
2022-07-26T14:22:10.389Z,9.00
2022-07-26T14:27:10.466Z,9.00
2022-07-26T14:32:10.460Z,8.90
2022-07-26T14:37:15.208Z,8.90
2022-07-26T14:42:10.396Z,8.80
2022-07-26T14:47:10.437Z,8.80
2022-07-26T14:52:10.403Z,7.90
2022-07-26T14:57:10.416Z,7.90
2022-07-26T15:02:10.575Z,8.40
2022-07-26T15:07:10.500Z,8.40
2022-07-26T15:12:10.395Z,10.50
2022-07-26T15:17:10.458Z,10.50
2022-07-26T15:22:10.448Z,9.10
2022-07-26T15:27:10.505Z,9.10
2022-07-26T15:32:10.562Z,8.80
2022-07-26T15:37:10.476Z,8.80
2022-07-26T15:42:10.440Z,8.40
2022-07-26T15:47:10.509Z,8.40
2022-07-26T15:52:10.470Z,8.70
2022-07-26T15:57:10.674Z,8.70
2022-07-26T16:02:10.602Z,7.90
2022-07-26T16:07:10.467Z,7.90
2022-07-26T16:12:10.465Z,9.40
2022-07-26T16:17:10.523Z,9.40
2022-07-26T16:22:10.525Z,8.60
2022-07-26T16:27:10.484Z,8.60
2022-07-26T16:32:10.617Z,10.50
2022-07-26T16:37:10.503Z,10.50
2022-07-26T16:42:10.537Z,11.70
2022-07-26T16:47:10.663Z,11.70
2022-07-26T16:52:10.506Z,11.10
2022-07-26T16:57:10.543Z,11.10
2022-07-26T17:02:10.647Z,13.10
2022-07-26T17:07:24.680Z,13.10
2022-07-26T17:12:10.545Z,13.10
2022-07-26T17:17:10.598Z,13.10
2022-07-26T17:27:10.553Z,13.50
2022-07-26T17:32:10.549Z,12.90
2022-07-26T17:37:10.629Z,12.90
2022-07-26T17:42:10.540Z,13.80
2022-07-26T17:47:27.454Z,13.80
2022-07-26T17:52:10.534Z,14.20
2022-07-26T17:57:11.010Z,14.20
2022-07-26T18:02:10.613Z,15.40
2022-07-26T18:07:10.539Z,15.40
2022-07-26T18:12:10.539Z,15.40
2022-07-26T18:17:10.572Z,15.40
2022-07-26T18:22:10.569Z,14.90
2022-07-26T18:27:10.581Z,14.90
2022-07-26T18:32:10.590Z,17.50
2022-07-26T18:37:10.599Z,17.50
2022-07-26T18:42:10.551Z,16.30
2022-07-26T18:47:10.549Z,16.30
2022-07-26T18:52:10.560Z,16.30
2022-07-26T19:02:10.644Z,17.40
2022-07-26T19:07:10.522Z,17.40
2022-07-26T19:12:10.662Z,17.50
2022-07-26T19:17:10.586Z,17.50
2022-07-26T19:22:10.630Z,15.60
2022-07-26T19:27:10.559Z,15.60
2022-07-26T19:32:10.551Z,14.60
2022-07-26T19:42:10.588Z,14.20
2022-07-26T19:47:10.563Z,14.20
2022-07-26T19:52:11.886Z,12.70
2022-07-26T19:57:10.616Z,12.70
2022-07-26T20:02:10.710Z,11.60
2022-07-26T20:07:10.587Z,11.60
2022-07-26T20:12:10.599Z,10.00
2022-07-26T20:17:11.946Z,10.00
2022-07-26T20:22:10.558Z,10.20
2022-07-26T20:27:10.660Z,10.20
2022-07-26T20:32:10.613Z,8.70
2022-07-26T20:37:10.620Z,8.70
2022-07-26T20:42:12.988Z,7.90
2022-07-26T20:47:10.640Z,7.90
2022-07-26T20:52:10.622Z,8.40
2022-07-26T20:57:10.629Z,8.40
2022-07-26T21:02:10.710Z,7.60
2022-07-26T21:07:10.581Z,7.60
2022-07-26T21:12:10.637Z,6.90
2022-07-26T21:17:12.165Z,6.90
2022-07-26T21:22:10.630Z,6.60
2022-07-26T21:27:10.634Z,6.60
2022-07-26T21:32:10.660Z,7.20
2022-07-26T21:37:10.645Z,7.20
2022-07-26T21:42:10.610Z,6.30
2022-07-26T21:47:10.649Z,6.30
2022-07-26T21:52:10.609Z,7.30
2022-07-26T21:57:10.669Z,7.30
2022-07-26T22:02:10.728Z,5.90
2022-07-26T22:07:10.656Z,5.90
2022-07-26T22:12:10.620Z,5.90
2022-07-26T22:17:10.664Z,5.90
2022-07-26T22:22:10.636Z,6.80
2022-07-26T22:27:10.680Z,6.80
2022-07-26T22:32:10.811Z,6.20
2022-07-26T22:37:10.679Z,6.20
2022-07-26T22:42:15.611Z,5.40
2022-07-26T22:47:10.672Z,5.40
2022-07-26T22:52:10.687Z,5.20
2022-07-26T22:57:10.752Z,5.20
2022-07-26T23:02:10.674Z,5.40
2022-07-26T23:07:10.656Z,5.40
2022-07-26T23:12:10.694Z,5.80
2022-07-26T23:17:10.714Z,5.80
2022-07-26T23:22:10.640Z,5.40
2022-07-26T23:27:10.702Z,5.40
2022-07-26T23:32:10.715Z,5.90
2022-07-26T23:37:10.730Z,5.90
2022-07-26T23:47:10.795Z,5.70
2022-07-26T23:52:10.749Z,4.80
2022-07-26T23:57:10.737Z,4.80
